Latest Weather Observations for Inverell RS

IDN60801

Issued at 10:35 pm EDT Friday 31 October 2014 (issued every 30 minutes, with the page automatically refreshed every 10 minutes)

About weather observations | Map of weather stations | Latest weather observations for NSW | Other Formats
Station Details ID: 056018 Name: INVERELL RESEARCH CENTRE Lat: -29.78 Lon: 151.08 Height: 664.0 m
Data from the previous 72 hours. | See also: Recent months at Inverell RS
Date/Time
EDT
Temp
°C
App
Temp
°C
Dew
Point
Rel
Hum
%
Delta-T
°C
Wind Press
QNH
hPa
Press
MSL
hPa
Rain
since 9 am
mm
Dir
 
Spd
km/h
Gust
km/h
Spd
kts
Gust
kts
31/10:30pm 19.5 16.9 13.7 69 3.4 WNW 20 43 11 23 1016.0 - 0.8
31/10:24pm 20.0 15.6 12.8 63 4.2 NW 28 43 15 23 1016.4 - 0.8
31/10:22pm 20.0 15.6 12.8 63 4.2 NW 28 43 15 23 1016.4 - 0.8
31/10:00pm 25.3 19.6 6.7 30 10.0 NW 26 41 14 22 1015.3 - 0.0
31/09:30pm 25.1 23.0 5.6 28 10.3 SE 6 9 3 5 1013.7 - 0.0
31/09:00pm 26.1 23.8 5.5 26 10.9 E 7 13 4 7 1013.5 1011.8 0.0
31/08:31pm 26.7 19.4 2.5 21 12.2 NE 30 48 16 26 1013.9 - 0.0
31/08:30pm 26.3 19.6 3.4 22 11.7 NE 28 56 15 30 1013.7 - 0.0
31/08:00pm 26.7 20.1 6.0 26 11.1 NNW 30 48 16 26 1013.5 - 0.0
31/07:58pm 27.0 20.2 5.3 25 11.5 NNW 30 48 16 26 1013.5 - 0.0
31/07:30pm 26.9 21.6 6.6 27 11.0 NNW 24 37 13 20 1013.0 - 0.0
31/07:00pm 28.5 24.7 4.1 21 12.8 NNW 13 19 7 10 1012.2 - 0.0
31/06:30pm 29.5 25.7 5.7 22 12.9 N 15 24 8 13 1011.7 - 0.0
31/06:00pm 30.0 26.8 6.9 23 12.8 N 13 22 7 12 1011.6 1009.8 0.0
31/05:30pm 31.0 27.6 5.8 20 13.8 NNW 13 17 7 9 1011.7 - 0.0
31/05:00pm 31.0 27.5 5.4 20 13.9 NNW 13 19 7 10 1011.8 - 0.0
31/04:30pm 31.3 27.0 5.1 19 14.2 NNW 17 26 9 14 1012.1 - 0.0
31/04:00pm 31.6 28.1 3.3 16 14.9 N 11 22 6 12 1012.3 - 0.0
31/03:30pm 31.4 27.9 5.6 19 14.1 N 13 20 7 11 1012.7 - 0.0
31/03:00pm 31.5 27.3 5.8 20 14.1 NNE 17 26 9 14 1013.2 1011.5 0.0
31/02:30pm 31.1 27.6 7.4 22 13.3 N 15 30 8 16 1013.8 - 0.0
31/02:00pm 31.6 27.5 6.2 20 14.0 N 17 30 9 16 1014.4 - 0.0
31/01:30pm 30.6 28.1 9.8 27 12.1 N 13 26 7 14 1014.9 - 0.0
31/01:00pm 30.2 27.2 10.6 29 11.5 NNW 17 28 9 15 1015.4 - 0.0
31/12:30pm 29.4 27.1 11.6 33 10.6 N 15 26 8 14 1016.1 - 0.0
31/12:00pm 29.4 27.5 12.9 36 10.0 N 15 26 8 14 1016.6 1014.9 0.0
31/11:30am 28.7 26.7 13.9 40 9.1 N 17 26 9 14 1017.1 - 0.0
31/11:00am 27.1 26.4 14.4 45 7.8 NE 11 17 6 9 1017.6 - 0.0
31/10:30am 26.3 25.4 14.8 49 7.1 N 13 19 7 10 1018.1 - 0.0
31/10:00am 25.6 24.6 14.7 51 6.7 N 13 20 7 11 1018.3 - 0.0
31/09:30am 23.9 22.7 14.0 54 6.0 N 13 19 7 10 1018.5 - 0.0
31/09:00am 22.6 24.8 22.6 100 0.0 N 15 28 8 15 1018.5 1016.8 0.0
31/08:30am 22.2 25.3 22.2 100 0.0 N 9 15 5 8 1018.5 - 0.0
31/08:00am 20.8 23.6 20.8 100 0.0 NNE 7 11 4 6 1018.4 - 0.0
31/07:30am 19.1 21.1 19.1 100 0.0 N 7 9 4 5 1018.2 - 0.0
31/07:00am 17.3 19.8 17.3 100 0.0 CALM 0 0 0 0 1017.9 - 0.0
31/06:30am 15.7 17.1 15.4 98 0.2 E 2 7 1 4 1017.4 - 0.0
31/06:00am 15.3 16.7 15.3 100 0.0 E 2 7 1 4 1017.2 1015.5 0.0
31/05:30am 15.0 16.2 15.0 100 0.0 ESE 2 7 1 4 1016.9 - 0.0
31/05:00am 15.5 16.2 15.5 100 0.0 ESE 6 7 3 4 1016.6 - 0.0
31/04:30am 16.1 17.8 16.1 100 0.0 ESE 2 6 1 3 1016.5 - 0.0
31/04:00am 14.9 16.5 14.9 100 0.0 CALM 0 0 0 0 1016.5 - 0.0
31/03:30am 16.8 18.0 16.8 100 0.0 N 6 7 3 4 1016.5 - 0.0
31/03:00am 16.9 17.5 16.9 100 0.0 NNW 9 11 5 6 1016.4 1014.7 0.0
31/02:30am 17.9 19.3 17.9 100 0.0 SSE 7 9 4 5 1016.2 - 0.0
31/02:00am 17.2 17.9 17.0 99 0.1 SSE 9 13 5 7 1016.5 - 0.0
31/01:30am 18.0 19.0 17.8 99 0.1 SE 9 11 5 6 1016.6 - 0.0
31/01:00am 18.7 20.5 18.7 100 0.0 SSE 7 11 4 6 1016.9 - 0.0
31/12:30am 18.9 20.4 18.9 100 0.0 S 9 11 5 6 1016.9 - 0.0
31/12:00am 20.0 22.3 19.8 99 0.1 S 7 9 4 5 1016.9 1015.2 0.0
 
Date/Time
EDT
Temp
°C
App
Temp
°C
Dew
Point
Rel
Hum
%
Delta-T
°C
Wind Press
QNH
hPa
Press
MSL
hPa
Rain
since 9 am
mm
Dir
 
Spd
km/h
Gust
km/h
Spd
kts
Gust
kts
30/11:30pm 20.5 23.1 20.5 100 0.0 S 7 9 4 5 1016.9 - 0.0
30/11:00pm 20.5 23.2 20.3 99 0.1 S 6 7 3 4 1016.9 - 0.0
30/10:30pm 22.7 26.3 22.4 98 0.2 S 7 11 4 6 1016.7 - 0.0
30/10:00pm 23.2 26.8 23.1 99 0.1 S 9 13 5 7 1016.4 - 0.0
30/09:30pm 23.7 27.7 23.7 100 0.0 WSW 9 11 5 6 1016.3 - 0.0
30/09:00pm 23.5 27.7 23.5 100 0.0 WSW 7 9 4 5 1016.0 1014.2 0.0
30/08:30pm 23.8 27.8 23.8 100 0.0 SW 9 11 5 6 1015.6 - 0.0
30/08:00pm 24.1 28.3 24.1 100 0.0 SW 9 11 5 6 1015.4 - 0.0
30/07:30pm 24.6 29.5 24.6 100 0.0 SW 7 9 4 5 1015.3 - 0.0
30/07:00pm 26.2 32.2 26.1 99 0.1 SW 6 9 3 5 1015.1 - 0.0
30/06:30pm 27.8 34.4 27.8 100 0.0 S 9 13 5 7 1014.9 - 0.0
30/06:00pm 28.9 36.5 28.6 98 0.2 SSW 7 13 4 7 1014.7 1012.9 0.0
30/05:30pm 28.2 35.1 28.2 100 0.0 S 9 15 5 8 1014.5 - 0.0
30/05:00pm 29.2 37.2 29.1 99 0.1 SW 7 17 4 9 1014.7 - 0.0
30/04:30pm 28.9 35.9 28.8 99 0.1 W 11 19 6 10 1014.6 - 0.0
30/04:00pm 30.0 37.6 29.6 98 0.3 WSW 11 20 6 11 1014.8 - 0.0
30/03:30pm 29.6 36.5 28.7 95 0.7 SW 11 19 6 10 1015.0 - 0.0
30/03:00pm 29.6 25.7 3.6 19 13.6 W 13 20 7 11 1015.3 1013.6 0.0
30/02:30pm 28.9 25.6 4.5 21 12.9 NW 11 22 6 12 1015.5 - 0.0
30/02:00pm 29.1 26.2 4.5 21 13.0 W 9 19 5 10 1016.1 - 0.0
30/01:30pm 28.5 25.1 5.9 24 12.2 W 13 22 7 12 1016.6 - 0.0
30/01:00pm 27.9 24.4 5.4 24 12.0 WNW 13 20 7 11 1017.0 - 0.0
30/12:30pm 27.2 24.4 8.4 30 10.5 NNW 13 19 7 10 1017.6 - 0.0
30/12:00pm 25.9 23.6 8.9 34 9.5 NNW 11 19 6 10 1018.2 1016.5 0.0
30/11:30am 26.5 24.7 9.3 33 9.7 WNW 9 15 5 8 1018.6 - 0.0
30/11:00am 24.5 22.8 9.8 39 8.3 N 9 17 5 9 1019.0 - 0.0
30/10:30am 23.9 21.3 9.4 39 8.1 N 13 20 7 11 1019.4 - 0.0
30/10:00am 22.3 20.1 10.9 48 6.5 N 13 19 7 10 1019.6 - 0.0
30/09:30am 21.4 18.5 9.7 47 6.5 N 15 24 8 13 1019.8 - 0.0
30/09:00am 20.1 18.0 11.1 56 5.1 N 13 19 7 10 1019.7 1018.0 0.0
30/08:30am 18.5 17.1 10.8 61 4.3 NNE 9 13 5 7 1019.6 - 0.0
30/08:00am 17.2 15.7 10.5 64 3.7 ENE 9 13 5 7 1019.3 - 0.0
30/07:30am 16.4 15.5 10.8 69 3.1 E 6 7 3 4 1019.1 - 0.0
30/07:00am 15.7 14.8 10.6 71 2.8 NE 6 9 3 5 1018.8 - 0.0
30/06:30am 13.4 13.4 9.8 79 1.9 CALM 0 7 0 4 1018.5 - 0.0
30/06:00am 12.9 13.0 10.1 83 1.5 CALM 0 0 0 0 1018.1 1016.4 0.0
30/05:30am 13.0 13.1 10.0 82 1.6 CALM 0 0 0 0 1018.0 - 0.0
30/05:00am 13.4 12.3 9.8 79 1.9 NE 6 7 3 4 1017.7 - 0.0
30/04:30am 13.8 12.4 9.7 76 2.2 NE 7 9 4 5 1017.6 - 0.0
30/04:00am 13.6 12.3 9.8 78 2.0 NNE 7 9 4 5 1017.6 - 0.0
30/03:30am 14.1 12.4 9.8 75 2.3 NE 9 13 5 7 1017.6 - 0.0
30/03:00am 13.7 12.5 10.4 80 1.8 E 7 9 4 5 1017.6 1015.9 0.0
30/02:30am 14.7 13.1 10.1 74 2.5 ENE 9 15 5 8 1017.6 - 0.0
30/02:00am 15.0 13.0 10.2 73 2.6 ENE 11 15 6 8 1017.6 - 0.0
30/01:30am 15.0 13.5 10.4 74 2.5 E 9 13 5 7 1017.8 - 0.0
30/01:00am 15.2 14.0 10.4 73 2.6 ENE 7 9 4 5 1017.9 - 0.0
30/12:30am 15.3 13.7 10.3 72 2.7 E 9 11 5 6 1018.0 - 0.0
30/12:00am 16.3 15.1 10.2 67 3.3 E 7 11 4 6 1018.1 1016.4 0.0
 
Date/Time
EDT
Temp
°C
App
Temp
°C
Dew
Point
Rel
Hum
%
Delta-T
°C
Wind Press
QNH
hPa
Press
MSL
hPa
Rain
since 9 am
mm
Dir
 
Spd
km/h
Gust
km/h
Spd
kts
Gust
kts
29/11:30pm 17.0 15.9 10.7 66 3.5 ENE 7 13 4 7 1018.2 - 0.0
29/11:00pm 17.5 16.5 10.2 62 4.0 E 6 9 3 5 1018.0 - 0.0
29/10:30pm 18.3 16.3 8.8 54 5.1 SE 9 13 5 7 1017.7 - 0.0
29/10:00pm 19.6 16.3 4.8 37 7.4 SE 11 19 6 10 1017.5 - 0.0
29/09:30pm 21.1 17.5 0.5 25 9.6 SSW 9 11 5 6 1016.8 - 0.0
29/09:00pm 22.6 18.6 0.2 22 10.5 SW 11 15 6 8 1016.4 1014.7 0.0
29/08:30pm 23.1 19.5 0.5 22 10.7 WSW 9 13 5 7 1016.2 - 0.0
29/08:00pm 22.9 19.2 0.1 22 10.7 WSW 9 11 5 6 1016.0 - 0.0
29/07:30pm 24.7 21.3 -0.3 19 11.8 SW 7 11 4 6 1015.6 - 0.0
29/07:00pm 25.4 22.4 0.9 20 11.9 SW 6 9 3 5 1015.4 - 0.0
29/06:30pm 26.8 23.8 0.5 18 12.8 SSW 6 11 3 6 1015.2 - 0.0
29/06:00pm 27.7 23.8 -1.5 15 13.8 S 9 15 5 8 1015.0 1013.3 0.0
29/05:30pm 28.4 24.4 -1.9 14 14.3 S 9 15 5 8 1014.8 - 0.0
29/05:00pm 28.5 24.6 -1.7 14 14.3 S 9 15 5 8 1014.8 - 0.0
29/04:30pm 28.9 24.7 -1.1 14 14.4 SSW 11 19 6 10 1014.8 - 0.0
29/04:00pm 29.0 24.3 -1.7 13 14.6 SW 13 24 7 13 1015.0 - 0.0
29/03:30pm 28.7 24.3 -2.1 13 14.5 SSW 11 20 6 11 1015.2 - 0.0
29/03:00pm 28.7 23.3 -1.6 14 14.4 S 17 30 9 16 1015.5 1013.8 0.0
29/02:30pm 29.0 25.5 1.2 16 13.9 S 9 15 5 8 1015.8 - 0.0
29/02:00pm 29.3 25.7 0.7 16 14.2 SSE 9 17 5 9 1016.1 - 0.0
29/01:30pm 27.6 23.2 -2.2 14 13.9 WSW 11 20 6 11 1016.6 - 0.0
29/01:00pm 27.1 22.7 -2.2 14 13.6 WNW 11 19 6 10 1016.8 - 0.0
29/12:30pm 27.0 23.3 -0.3 17 13.1 NE 9 15 5 8 1017.2 - 0.0
29/12:00pm 26.0 21.5 -0.6 17 12.6 SW 13 24 7 13 1017.6 - 0.0
29/11:30am 26.4 22.7 -0.1 17 12.7 SW 9 20 5 11 1017.9 - 0.0
29/11:00am 25.3 21.0 -1.4 17 12.4 SW 11 19 6 10 1018.2 - 0.0
29/10:30am 23.8 18.6 -2.4 17 11.8 SSE 15 22 8 12 1018.3 - 0.0
29/10:00am 23.5 18.5 -1.4 19 11.4 S 15 24 8 13 1018.2 - 0.0
29/09:30am 22.9 18.0 -0.3 21 10.8 SSE 15 26 8 14 1018.2 - 0.0
29/09:00am 21.8 17.1 -1.5 21 10.5 SSE 13 20 7 11 1018.1 1016.4 0.0
29/08:30am 19.5 15.3 -0.8 25 9.1 SSE 11 17 6 9 1018.1 - 0.0
29/08:00am 17.5 13.5 0.5 31 7.7 S 11 15 6 8 1017.9 - 0.0
29/07:30am 16.7 13.1 0.5 33 7.3 S 9 15 5 8 1017.8 - 0.0
29/07:00am 15.7 12.2 1.1 37 6.6 SSE 9 13 5 7 1017.6 - 0.0
29/06:30am 14.1 10.8 0.4 39 6.0 SSW 7 13 4 7 1017.4 - 0.0
29/06:00am 13.7 9.9 -0.5 37 6.1 SSW 9 15 5 8 1016.8 1015.1 0.0
29/05:30am 14.8 10.9 -1.8 32 7.0 SSW 9 15 5 8 1016.5 - 0.0
29/05:00am 14.6 10.8 -1.1 34 6.7 SSW 9 15 5 8 1016.3 - 0.0
29/04:30am 14.9 10.7 -0.9 34 6.8 SSW 11 17 6 9 1016.1 - 0.0
29/04:00am 15.5 10.8 -1.6 31 7.3 SSW 13 19 7 10 1016.0 - 0.0
29/03:30am 16.1 11.4 -2.0 29 7.7 SSW 13 20 7 11 1015.9 - 0.0
29/03:00am 16.9 12.0 -3.7 24 8.5 SSW 13 19 7 10 1015.8 1014.1 0.0
29/02:30am 16.5 12.4 -3.2 26 8.2 SW 9 11 5 6 1015.8 - 0.0
29/02:00am 17.4 12.4 -3.9 23 8.8 S 13 19 7 10 1015.8 - 0.0
29/01:30am 17.7 12.3 -4.1 22 9.0 S 15 22 8 12 1015.8 - 0.0
29/01:00am 18.3 13.3 -4.1 21 9.3 SSW 13 19 7 10 1016.1 - 0.0
29/12:30am 18.4 13.8 -3.9 21 9.3 SSW 11 19 6 10 1016.2 - 0.0
29/12:00am 18.8 14.3 -3.4 22 9.4 SSW 11 15 6 8 1016.2 1014.5 0.0
 
Date/Time
EDT
Temp
°C
App
Temp
°C
Dew
Point
Rel
Hum
%
Delta-T
°C
Wind Press
QNH
hPa
Press
MSL
hPa
Rain
since 9 am
mm
Dir
 
Spd
km/h
Gust
km/h
Spd
kts
Gust
kts
28/11:30pm 19.4 14.8 -4.3 20 9.9 SSW 11 17 6 9 1016.0 - 0.0
28/11:00pm 20.1 15.1 -4.0 19 10.2 SSW 13 20 7 11 1015.8 - 0.0

Other Formats:

Comma delimited format used in spreadsheet applications
http://www.bom.gov.au/fwo/IDN60801/IDN60801.94541.axf

JavaScript Object Notation format (JSON) in row-major order
http://www.bom.gov.au/fwo/IDN60801/IDN60801.94541.json